sensor_id;sensor_type;location;lat;lon;timestamp;pressure;altitude;pressure_sealevel;temperature;humidity
19526;BME280;9907;42.676;26.348;2023-09-19T00:01:07;99246.13;;;16.40;80.07
19526;BME280;9907;42.676;26.348;2023-09-19T00:03:34;99240.03;;;16.38;80.94
19526;BME280;9907;42.676;26.348;2023-09-19T00:06:03;99245.28;;;16.40;80.07
19526;BME280;9907;42.676;26.348;2023-09-19T00:08:28;99244.09;;;16.34;80.50
19526;BME280;9907;42.676;26.348;2023-09-19T00:10:54;99246.13;;;16.24;81.58
19526;BME280;9907;42.676;26.348;2023-09-19T00:13:20;99241.06;;;16.29;80.71
19526;BME280;9907;42.676;26.348;2023-09-19T00:15:47;99240.88;;;16.31;80.80
19526;BME280;9907;42.676;26.348;2023-09-19T00:18:16;99235.69;;;16.21;81.38
19526;BME280;9907;42.676;26.348;2023-09-19T00:20:44;99237.34;;;16.22;81.25
19526;BME280;9907;42.676;26.348;2023-09-19T00:23:16;99238.69;;;16.26;80.33
19526;BME280;9907;42.676;26.348;2023-09-19T00:25:42;99240.06;;;16.14;81.61
19526;BME280;9907;42.676;26.348;2023-09-19T00:28:08;99250.31;;;16.11;81.75
19526;BME280;9907;42.676;26.348;2023-09-19T00:30:34;99244.44;;;16.07;82.09
19526;BME280;9907;42.676;26.348;2023-09-19T00:33:00;99244.59;;;16.14;81.94
19526;BME280;9907;42.676;26.348;2023-09-19T00:35:28;99238.53;;;16.20;81.10
19526;BME280;9907;42.676;26.348;2023-09-19T00:37:53;99243.09;;;16.11;81.75
19526;BME280;9907;42.676;26.348;2023-09-19T00:40:20;99243.75;;;15.89;83.70
19526;BME280;9907;42.676;26.348;2023-09-19T00:42:47;99238.00;;;15.92;83.24
19526;BME280;9907;42.676;26.348;2023-09-19T00:45:14;99239.53;;;15.94;83.06
19526;BME280;9907;42.676;26.348;2023-09-19T00:47:42;99237.34;;;15.98;82.88
19526;BME280;9907;42.676;26.348;2023-09-19T00:50:10;99240.38;;;15.95;83.38
19526;BME280;9907;42.676;26.348;2023-09-19T00:52:38;99235.66;;;15.97;83.02
19526;BME280;9907;42.676;26.348;2023-09-19T00:55:06;99234.28;;;15.93;83.71
19526;BME280;9907;42.676;26.348;2023-09-19T00:57:33;99233.97;;;15.88;83.75
19526;BME280;9907;42.676;26.348;2023-09-19T01:00:00;99244.41;;;15.91;83.61
19526;BME280;9907;42.676;26.348;2023-09-19T01:02:31;99248.09;;;15.90;84.08
19526;BME280;9907;42.676;26.348;2023-09-19T01:04:57;99247.41;;;15.80;84.74
19526;BME280;9907;42.676;26.348;2023-09-19T01:07:23;99251.81;;;15.89;84.12
19526;BME280;9907;42.676;26.348;2023-09-19T01:09:49;99250.28;;;15.86;83.61
19526;BME280;9907;42.676;26.348;2023-09-19T01:12:18;99252.31;;;15.84;84.15
19526;BME280;9907;42.676;26.348;2023-09-19T01:14:59;99254.81;;;15.78;83.52
19526;BME280;9907;42.676;26.348;2023-09-19T01:17:33;99243.69;;;15.73;83.61
19526;BME280;9907;42.676;26.348;2023-09-19T01:20:22;99240.84;;;15.82;83.25
19526;BME280;9907;42.676;26.348;2023-09-19T01:23:19;99250.25;;;15.78;83.33
19526;BME280;9907;42.676;26.348;2023-09-19T01:31:29;99248.09;;;15.74;83.15
19526;BME280;9907;42.676;26.348;2023-09-19T01:34:02;99246.75;;;15.78;83.11
19526;BME280;9907;42.676;26.348;2023-09-19T01:36:36;99240.31;;;15.71;83.42
19526;BME280;9907;42.676;26.348;2023-09-19T01:39:13;99239.78;;;15.67;83.28
19526;BME280;9907;42.676;26.348;2023-09-19T01:42:08;99235.44;;;15.66;83.60
19526;BME280;9907;42.676;26.348;2023-09-19T01:47:54;99235.63;;;15.73;82.25
19526;BME280;9907;42.676;26.348;2023-09-19T01:50:34;99241.66;;;15.75;82.73
19526;BME280;9907;42.676;26.348;2023-09-19T01:53:27;99230.72;;;15.68;82.63
19526;BME280;9907;42.676;26.348;2023-09-19T01:55:57;99232.41;;;15.69;82.66
19526;BME280;9907;42.676;26.348;2023-09-19T01:58:39;99229.03;;;15.67;82.02
19526;BME280;9907;42.676;26.348;2023-09-19T02:01:11;99231.06;;;15.65;82.67
19526;BME280;9907;42.676;26.348;2023-09-19T02:03:39;99230.34;;;15.63;82.35
19526;BME280;9907;42.676;26.348;2023-09-19T02:06:05;99228.69;;;15.62;82.29
19526;BME280;9907;42.676;26.348;2023-09-19T02:08:37;99232.22;;;15.54;81.98
19526;BME280;9907;42.676;26.348;2023-09-19T02:11:02;99237.94;;;15.51;83.08
19526;BME280;9907;42.676;26.348;2023-09-19T02:13:28;99237.41;;;15.56;83.17
19526;BME280;9907;42.676;26.348;2023-09-19T02:15:57;99234.22;;;15.52;82.47
19526;BME280;9907;42.676;26.348;2023-09-19T02:18:22;99242.97;;;15.54;82.50
19526;BME280;9907;42.676;26.348;2023-09-19T02:20:49;99238.09;;;15.58;82.35
19526;BME280;9907;42.676;26.348;2023-09-19T02:23:16;99226.50;;;15.57;82.62
19526;BME280;9907;42.676;26.348;2023-09-19T02:25:51;99234.53;;;15.49;82.53
19526;BME280;9907;42.676;26.348;2023-09-19T02:28:17;99226.41;;;15.41;82.97
19526;BME280;9907;42.676;26.348;2023-09-19T02:30:42;99226.22;;;15.35;83.03
19526;BME280;9907;42.676;26.348;2023-09-19T02:33:10;99225.22;;;15.36;83.49
19526;BME280;9907;42.676;26.348;2023-09-19T02:35:36;99227.94;;;15.44;82.77
19526;BME280;9907;42.676;26.348;2023-09-19T02:38:02;99217.84;;;15.46;82.37
19526;BME280;9907;42.676;26.348;2023-09-19T02:40:33;99222.72;;;15.42;82.81
19526;BME280;9907;42.676;26.348;2023-09-19T02:43:02;99226.91;;;15.45;83.25
19526;BME280;9907;42.676;26.348;2023-09-19T02:45:28;99220.19;;;15.41;83.65
19526;BME280;9907;42.676;26.348;2023-09-19T02:47:55;99220.03;;;15.42;83.65
19526;BME280;9907;42.676;26.348;2023-09-19T02:50:21;99216.31;;;15.35;83.82
19526;BME280;9907;42.676;26.348;2023-09-19T02:52:47;99216.44;;;15.34;84.52
19526;BME280;9907;42.676;26.348;2023-09-19T02:55:18;99211.88;;;15.26;84.26
19526;BME280;9907;42.676;26.348;2023-09-19T02:57:52;99207.88;;;15.30;84.66
19526;BME280;9907;42.676;26.348;2023-09-19T03:00:19;99204.66;;;15.27;84.65
19526;BME280;9907;42.676;26.348;2023-09-19T03:02:55;99208.19;;;15.27;85.12
19526;BME280;9907;42.676;26.348;2023-09-19T03:05:22;99200.59;;;15.23;85.91
19526;BME280;9907;42.676;26.348;2023-09-19T03:07:49;99209.03;;;15.28;85.53
19526;BME280;9907;42.676;26.348;2023-09-19T03:10:16;99199.97;;;15.29;86.10
19526;BME280;9907;42.676;26.348;2023-09-19T03:12:42;99197.78;;;15.32;86.39
19526;BME280;9907;42.676;26.348;2023-09-19T03:15:08;99199.28;;;15.27;86.65
19526;BME280;9907;42.676;26.348;2023-09-19T03:17:34;99189.53;;;15.34;85.84
19526;BME280;9907;42.676;26.348;2023-09-19T03:19:59;99190.53;;;15.25;86.62
19526;BME280;9907;42.676;26.348;2023-09-19T03:22:26;99182.31;;;15.34;85.98
19526;BME280;9907;42.676;26.348;2023-09-19T03:24:52;99183.81;;;15.29;87.53
19526;BME280;9907;42.676;26.348;2023-09-19T03:27:18;99188.88;;;15.32;87.71
19526;BME280;9907;42.676;26.348;2023-09-19T03:29:44;99182.16;;;15.36;87.35
19526;BME280;9907;42.676;26.348;2023-09-19T03:32:17;99183.13;;;15.19;88.19
19526;BME280;9907;42.676;26.348;2023-09-19T03:34:44;99177.38;;;15.14;88.34
19526;BME280;9907;42.676;26.348;2023-09-19T03:37:10;99183.94;;;15.19;88.24
19526;BME280;9907;42.676;26.348;2023-09-19T03:39:38;99179.28;;;15.29;88.55
19526;BME280;9907;42.676;26.348;2023-09-19T03:42:09;99180.28;;;15.28;88.62
19526;BME280;9907;42.676;26.348;2023-09-19T03:44:35;99178.94;;;15.24;89.00
19526;BME280;9907;42.676;26.348;2023-09-19T03:47:00;99175.06;;;15.27;88.47
19526;BME280;9907;42.676;26.348;2023-09-19T03:49:26;99171.34;;;15.20;89.60
19526;BME280;9907;42.676;26.348;2023-09-19T03:51:51;99182.28;;;15.18;89.90
19526;BME280;9907;42.676;26.348;2023-09-19T03:54:17;99182.13;;;15.28;89.93
19526;BME280;9907;42.676;26.348;2023-09-19T03:56:46;99175.25;;;15.33;90.01
19526;BME280;9907;42.676;26.348;2023-09-19T03:59:12;99188.72;;;15.33;90.50
19526;BME280;9907;42.676;26.348;2023-09-19T04:01:38;99182.34;;;15.42;89.97
19526;BME280;9907;42.676;26.348;2023-09-19T04:04:06;99186.09;;;15.49;89.56
19526;BME280;9907;42.676;26.348;2023-09-19T04:06:35;99190.06;;;15.45;90.16
19526;BME280;9907;42.676;26.348;2023-09-19T04:09:04;99184.34;;;15.32;91.54
19526;BME280;9907;42.676;26.348;2023-09-19T04:11:30;99182.50;;;15.33;92.77
19526;BME280;9907;42.676;26.348;2023-09-19T04:13:56;99182.13;;;15.28;92.73
19526;BME280;9907;42.676;26.348;2023-09-19T04:16:22;99196.78;;;15.33;92.92
19526;BME280;9907;42.676;26.348;2023-09-19T04:18:48;99191.06;;;15.28;93.21
19526;BME280;9907;42.676;26.348;2023-09-19T04:21:13;99194.09;;;15.33;92.93
19526;BME280;9907;42.676;26.348;2023-09-19T04:23:39;99201.50;;;15.39;93.38
19526;BME280;9907;42.676;26.348;2023-09-19T04:26:04;99198.97;;;15.38;93.03
19526;BME280;9907;42.676;26.348;2023-09-19T04:28:31;99194.09;;;15.41;93.94
19526;BME280;9907;42.676;26.348;2023-09-19T04:30:59;99193.81;;;15.44;92.94
19526;BME280;9907;42.676;26.348;2023-09-19T04:33:28;99198.00;;;15.47;94.36
19526;BME280;9907;42.676;26.348;2023-09-19T04:35:53;99202.94;;;15.59;93.52
19526;BME280;9907;42.676;26.348;2023-09-19T04:38:19;99201.94;;;15.61;92.91
19526;BME280;9907;42.676;26.348;2023-09-19T04:40:45;99193.50;;;15.64;93.75
19526;BME280;9907;42.676;26.348;2023-09-19T04:43:10;99193.19;;;15.75;94.32
19526;BME280;9907;42.676;26.348;2023-09-19T04:45:38;99200.28;;;15.84;93.90
19526;BME280;9907;42.676;26.348;2023-09-19T04:48:04;99190.69;;;15.89;92.42
19526;BME280;9907;42.676;26.348;2023-09-19T04:50:31;99188.69;;;15.99;92.88
19526;BME280;9907;42.676;26.348;2023-09-19T04:52:57;99187.00;;;16.15;92.22
19526;BME280;9907;42.676;26.348;2023-09-19T04:55:23;99189.16;;;16.27;91.58
19526;BME280;9907;42.676;26.348;2023-09-19T04:57:54;99190.16;;;16.42;89.52
19526;BME280;9907;42.676;26.348;2023-09-19T05:00:21;99190.81;;;16.69;87.73
19526;BME280;9907;42.676;26.348;2023-09-19T05:02:55;99192.28;;;16.87;87.56
19526;BME280;9907;42.676;26.348;2023-09-19T05:05:21;99183.63;;;17.00;84.84
19526;BME280;9907;42.676;26.348;2023-09-19T05:07:49;99196.06;;;17.17;84.39
19526;BME280;9907;42.676;26.348;2023-09-19T05:10:15;99192.59;;;17.31;84.29
19526;BME280;9907;42.676;26.348;2023-09-19T05:12:44;99185.72;;;17.51;82.81
19526;BME280;9907;42.676;26.348;2023-09-19T05:15:12;99196.31;;;17.69;82.08
19526;BME280;9907;42.676;26.348;2023-09-19T05:17:39;99195.41;;;17.77;81.56
19526;BME280;9907;42.676;26.348;2023-09-19T05:20:06;99187.66;;;17.96;79.53
19526;BME280;9907;42.676;26.348;2023-09-19T05:22:57;99196.75;;;18.18;78.41
19526;BME280;9907;42.676;26.348;2023-09-19T05:25:22;99195.06;;;18.40;76.66
19526;BME280;9907;42.676;26.348;2023-09-19T05:27:48;99195.03;;;18.63;74.92
19526;BME280;9907;42.676;26.348;2023-09-19T05:30:13;99197.41;;;18.43;75.01
19526;BME280;9907;42.676;26.348;2023-09-19T05:32:40;99202.88;;;18.58;74.87
19526;BME280;9907;42.676;26.348;2023-09-19T05:35:06;99202.50;;;18.75;73.82
19526;BME280;9907;42.676;26.348;2023-09-19T05:37:35;99190.94;;;18.96;72.92
19526;BME280;9907;42.676;26.348;2023-09-19T05:40:02;99193.47;;;19.12;71.61
19526;BME280;9907;42.676;26.348;2023-09-19T05:42:27;99185.50;;;19.25;71.92
19526;BME280;9907;42.676;26.348;2023-09-19T05:44:53;99196.19;;;19.63;70.46
19526;BME280;9907;42.676;26.348;2023-09-19T05:47:18;99197.72;;;19.36;70.18
19526;BME280;9907;42.676;26.348;2023-09-19T05:49:44;99196.81;;;19.43;69.85
19526;BME280;9907;42.676;26.348;2023-09-19T05:52:12;99195.44;;;19.90;69.22
19526;BME280;9907;42.676;26.348;2023-09-19T05:54:45;99185.94;;;20.22;68.41
19526;BME280;9907;42.676;26.348;2023-09-19T05:57:13;99182.06;;;20.52;66.77
19526;BME280;9907;42.676;26.348;2023-09-19T05:59:38;99191.97;;;20.66;65.18
19526;BME280;9907;42.676;26.348;2023-09-19T06:02:05;99188.41;;;20.66;64.16
19526;BME280;9907;42.676;26.348;2023-09-19T06:04:31;99189.47;;;20.65;64.96
19526;BME280;9907;42.676;26.348;2023-09-19T06:06:59;99187.47;;;20.80;64.96
19526;BME280;9907;42.676;26.348;2023-09-19T06:09:26;99187.81;;;20.98;64.27
19526;BME280;9907;42.676;26.348;2023-09-19T06:11:53;99190.03;;;21.22;63.19
19526;BME280;9907;42.676;26.348;2023-09-19T06:14:22;99193.88;;;21.41;62.25
19526;BME280;9907;42.676;26.348;2023-09-19T06:16:50;99197.53;;;21.68;61.33
19526;BME280;9907;42.676;26.348;2023-09-19T06:19:15;99190.84;;;21.77;60.74
19526;BME280;9907;42.676;26.348;2023-09-19T06:21:41;99192.84;;;22.16;59.68
19526;BME280;9907;42.676;26.348;2023-09-19T06:24:10;99195.59;;;22.42;59.35
19526;BME280;9907;42.676;26.348;2023-09-19T06:26:36;99187.44;;;22.42;58.68
19526;BME280;9907;42.676;26.348;2023-09-19T06:29:02;99185.94;;;22.66;57.41
19526;BME280;9907;42.676;26.348;2023-09-19T06:31:32;99192.44;;;22.58;56.50
19526;BME280;9907;42.676;26.348;2023-09-19T06:33:58;99183.66;;;22.69;56.97
19526;BME280;9907;42.676;26.348;2023-09-19T06:36:24;99189.91;;;22.96;55.81
19526;BME280;9907;42.676;26.348;2023-09-19T06:38:49;99185.91;;;23.05;55.96
19526;BME280;9907;42.676;26.348;2023-09-19T06:41:17;99186.44;;;23.34;54.92
19526;BME280;9907;42.676;26.348;2023-09-19T06:43:43;99183.91;;;23.45;54.66
19526;BME280;9907;42.676;26.348;2023-09-19T06:46:09;99180.94;;;23.53;53.91
19526;BME280;9907;42.676;26.348;2023-09-19T06:48:35;99184.75;;;23.84;53.47
19526;BME280;9907;42.676;26.348;2023-09-19T06:51:00;99180.06;;;23.97;53.40
19526;BME280;9907;42.676;26.348;2023-09-19T06:53:33;99174.19;;;24.25;52.31
19526;BME280;9907;42.676;26.348;2023-09-19T06:56:01;99178.63;;;24.26;51.61
19526;BME280;9907;42.676;26.348;2023-09-19T06:58:26;99176.28;;;24.30;52.12
19526;BME280;9907;42.676;26.348;2023-09-19T07:00:52;99171.66;;;24.30;51.49
19526;BME280;9907;42.676;26.348;2023-09-19T07:03:17;99178.00;;;24.49;50.45
19526;BME280;9907;42.676;26.348;2023-09-19T07:05:47;99176.44;;;24.84;50.71
19526;BME280;9907;42.676;26.348;2023-09-19T07:08:13;99171.59;;;25.04;49.90
19526;BME280;9907;42.676;26.348;2023-09-19T07:10:42;99175.47;;;25.15;49.31
19526;BME280;9907;42.676;26.348;2023-09-19T07:13:14;99178.13;;;24.85;49.22
19526;BME280;9907;42.676;26.348;2023-09-19T07:15:42;99181.53;;;24.99;48.87
19526;BME280;9907;42.676;26.348;2023-09-19T07:18:15;99180.09;;;24.96;48.97
19526;BME280;9907;42.676;26.348;2023-09-19T07:20:43;99185.28;;;25.04;47.96
19526;BME280;9907;42.676;26.348;2023-09-19T07:23:16;99175.69;;;25.13;48.97
19526;BME280;9907;42.676;26.348;2023-09-19T07:25:43;99170.22;;;25.32;48.33
19526;BME280;9907;42.676;26.348;2023-09-19T07:28:10;99170.69;;;25.29;49.16
19526;BME280;9907;42.676;26.348;2023-09-19T07:30:36;99167.06;;;25.53;49.17
19526;BME280;9907;42.676;26.348;2023-09-19T07:33:06;99166.78;;;25.73;48.82
19526;BME280;9907;42.676;26.348;2023-09-19T07:35:32;99167.34;;;25.45;47.96
19526;BME280;9907;42.676;26.348;2023-09-19T07:37:59;99159.13;;;25.63;47.74
19526;BME280;9907;42.676;26.348;2023-09-19T07:40:27;99167.84;;;26.13;47.41
19526;BME280;9907;42.676;26.348;2023-09-19T07:42:57;99151.00;;;26.28;47.16
19526;BME280;9907;42.676;26.348;2023-09-19T07:45:27;99159.00;;;25.99;47.38
19526;BME280;9907;42.676;26.348;2023-09-19T07:47:53;99147.25;;;26.10;46.66
19526;BME280;9907;42.676;26.348;2023-09-19T07:50:20;99162.22;;;25.96;46.99
19526;BME280;9907;42.676;26.348;2023-09-19T07:52:47;99158.19;;;25.69;46.66
19526;BME280;9907;42.676;26.348;2023-09-19T07:55:13;99153.81;;;25.80;46.56
19526;BME280;9907;42.676;26.348;2023-09-19T07:57:43;99147.22;;;25.99;46.35
19526;BME280;9907;42.676;26.348;2023-09-19T08:00:10;99150.16;;;26.15;46.21
19526;BME280;9907;42.676;26.348;2023-09-19T08:02:36;99147.69;;;26.26;45.99
19526;BME280;9907;42.676;26.348;2023-09-19T08:05:08;99140.78;;;26.23;46.32
19526;BME280;9907;42.676;26.348;2023-09-19T08:07:38;99144.72;;;26.50;45.20
19526;BME280;9907;42.676;26.348;2023-09-19T08:10:05;99143.03;;;26.26;45.35
19526;BME280;9907;42.676;26.348;2023-09-19T08:12:36;99146.81;;;25.84;46.83
19526;BME280;9907;42.676;26.348;2023-09-19T08:15:03;99142.00;;;25.97;46.52
19526;BME280;9907;42.676;26.348;2023-09-19T08:17:35;99134.59;;;26.28;45.61
19526;BME280;9907;42.676;26.348;2023-09-19T08:20:01;99132.22;;;26.43;45.66
19526;BME280;9907;42.676;26.348;2023-09-19T08:22:30;99125.81;;;26.49;45.48
19526;BME280;9907;42.676;26.348;2023-09-19T08:24:57;99128.78;;;26.59;44.71
19526;BME280;9907;42.676;26.348;2023-09-19T08:27:27;99124.72;;;26.61;43.87
19526;BME280;9907;42.676;26.348;2023-09-19T08:29:53;99126.66;;;26.49;43.93
19526;BME280;9907;42.676;26.348;2023-09-19T08:32:18;99113.44;;;26.35;45.50
19526;BME280;9907;42.676;26.348;2023-09-19T08:34:49;99118.88;;;26.46;45.06
19526;BME280;9907;42.676;26.348;2023-09-19T08:37:15;99121.63;;;26.46;45.36
19526;BME280;9907;42.676;26.348;2023-09-19T08:39:44;99113.75;;;26.61;44.87
19526;BME280;9907;42.676;26.348;2023-09-19T08:42:10;99110.91;;;26.68;44.79
19526;BME280;9907;42.676;26.348;2023-09-19T08:44:37;99114.47;;;26.57;44.76
19526;BME280;9907;42.676;26.348;2023-09-19T08:47:15;99110.06;;;26.79;44.45
19526;BME280;9907;42.676;26.348;2023-09-19T08:52:36;99105.66;;;26.32;45.70
19526;BME280;9907;42.676;26.348;2023-09-19T08:55:02;99108.78;;;26.24;45.46
19526;BME280;9907;42.676;26.348;2023-09-19T08:57:33;99108.19;;;26.56;46.17
19526;BME280;9907;42.676;26.348;2023-09-19T09:00:07;99105.91;;;26.30;47.08
19526;BME280;9907;42.676;26.348;2023-09-19T09:02:38;99105.66;;;26.20;46.94
19526;BME280;9907;42.676;26.348;2023-09-19T09:05:08;99109.09;;;25.74;47.33
19526;BME280;9907;42.676;26.348;2023-09-19T09:07:35;99101.50;;;25.88;48.78
19526;BME280;9907;42.676;26.348;2023-09-19T09:10:05;99089.97;;;25.86;48.52
19526;BME280;9907;42.676;26.348;2023-09-19T09:12:31;99108.69;;;25.59;49.18
19526;BME280;9907;42.676;26.348;2023-09-19T09:14:58;99105.50;;;24.96;49.41
19526;BME280;9907;42.676;26.348;2023-09-19T09:17:26;99091.13;;;25.18;50.05
19526;BME280;9907;42.676;26.348;2023-09-19T09:19:53;99090.19;;;25.25;50.06
19526;BME280;9907;42.676;26.348;2023-09-19T09:22:19;99094.94;;;24.99;50.12
19526;BME280;9907;42.676;26.348;2023-09-19T09:24:53;99092.84;;;24.77;51.14
19526;BME280;9907;42.676;26.348;2023-09-19T09:27:20;99085.69;;;25.00;50.44
19526;BME280;9907;42.676;26.348;2023-09-19T09:29:49;99084.53;;;25.08;51.35
19526;BME280;9907;42.676;26.348;2023-09-19T09:32:18;99078.03;;;25.20;51.23
19526;BME280;9907;42.676;26.348;2023-09-19T09:34:44;99089.72;;;24.98;51.49
19526;BME280;9907;42.676;26.348;2023-09-19T09:37:16;99078.97;;;24.78;52.03
19526;BME280;9907;42.676;26.348;2023-09-19T09:39:52;99100.56;;;24.61;52.10
19526;BME280;9907;42.676;26.348;2023-09-19T09:42:37;99083.13;;;24.81;52.73
19526;BME280;9907;42.676;26.348;2023-09-19T09:45:19;99082.41;;;25.10;51.44
19526;BME280;9907;42.676;26.348;2023-09-19T09:47:54;99085.91;;;24.99;51.99
19526;BME280;9907;42.676;26.348;2023-09-19T09:53:29;99074.81;;;24.33;53.00
19526;BME280;9907;42.676;26.348;2023-09-19T09:56:06;99073.22;;;24.68;52.63
19526;BME280;9907;42.676;26.348;2023-09-19T09:58:34;99074.03;;;24.68;52.17
19526;BME280;9907;42.676;26.348;2023-09-19T10:01:00;99068.44;;;24.63;52.21
19526;BME280;9907;42.676;26.348;2023-09-19T10:03:36;99059.34;;;24.88;51.75
19526;BME280;9907;42.676;26.348;2023-09-19T10:06:10;99067.97;;;25.03;50.57
19526;BME280;9907;42.676;26.348;2023-09-19T10:08:59;99063.56;;;25.02;51.06
19526;BME280;9907;42.676;26.348;2023-09-19T10:11:49;99064.97;;;24.93;50.63
19526;BME280;9907;42.676;26.348;2023-09-19T10:14:28;99063.78;;;25.18;50.44
19526;BME280;9907;42.676;26.348;2023-09-19T10:16:58;99057.69;;;25.35;50.07
19526;BME280;9907;42.676;26.348;2023-09-19T10:19:30;99055.16;;;24.67;51.53
19526;BME280;9907;42.676;26.348;2023-09-19T10:22:01;99059.19;;;24.83;51.15
19526;BME280;9907;42.676;26.348;2023-09-19T10:24:28;99052.97;;;24.94;51.10
19526;BME280;9907;42.676;26.348;2023-09-19T10:26:55;99051.31;;;24.93;50.13
19526;BME280;9907;42.676;26.348;2023-09-19T10:29:21;99050.91;;;25.07;50.08
19526;BME280;9907;42.676;26.348;2023-09-19T10:31:52;99054.22;;;25.09;50.22
19526;BME280;9907;42.676;26.348;2023-09-19T10:34:19;99050.44;;;24.56;50.43
19526;BME280;9907;42.676;26.348;2023-09-19T10:36:46;99031.13;;;24.57;50.17
19526;BME280;9907;42.676;26.348;2023-09-19T10:39:16;99043.38;;;24.66;50.31
19526;BME280;9907;42.676;26.348;2023-09-19T10:41:51;99035.13;;;24.73;49.89
19526;BME280;9907;42.676;26.348;2023-09-19T10:44:22;99037.25;;;24.35;50.30
19526;BME280;9907;42.676;26.348;2023-09-19T10:46:49;99028.06;;;24.04;51.23
19526;BME280;9907;42.676;26.348;2023-09-19T10:49:15;99025.22;;;24.17;50.33
19526;BME280;9907;42.676;26.348;2023-09-19T10:51:42;99020.13;;;24.21;50.15
19526;BME280;9907;42.676;26.348;2023-09-19T10:54:13;99016.91;;;24.06;50.65
19526;BME280;9907;42.676;26.348;2023-09-19T10:56:49;99014.31;;;24.17;49.55
19526;BME280;9907;42.676;26.348;2023-09-19T10:59:18;99011.28;;;24.26;49.70
19526;BME280;9907;42.676;26.348;2023-09-19T11:01:45;99010.06;;;24.21;48.82
19526;BME280;9907;42.676;26.348;2023-09-19T11:04:24;99002.28;;;24.43;48.86
19526;BME280;9907;42.676;26.348;2023-09-19T11:07:11;98995.75;;;24.44;48.91
19526;BME280;9907;42.676;26.348;2023-09-19T11:09:50;99007.63;;;24.32;49.33
19526;BME280;9907;42.676;26.348;2023-09-19T11:12:47;98992.09;;;24.32;49.69
19526;BME280;9907;42.676;26.348;2023-09-19T11:26:43;98981.09;;;24.75;48.96
19526;BME280;9907;42.676;26.348;2023-09-19T11:29:30;98976.50;;;24.57;47.94
19526;BME280;9907;42.676;26.348;2023-09-19T11:31:57;98980.19;;;24.63;47.95
19526;BME280;9907;42.676;26.348;2023-09-19T11:42:44;98975.88;;;24.19;48.84
19526;BME280;9907;42.676;26.348;2023-09-19T11:48:18;98961.19;;;24.38;48.09
19526;BME280;9907;42.676;26.348;2023-09-19T11:50:44;98971.03;;;24.39;47.86
19526;BME280;9907;42.676;26.348;2023-09-19T11:53:12;98951.53;;;24.36;48.13
19526;BME280;9907;42.676;26.348;2023-09-19T11:55:39;98954.50;;;24.52;47.76
19526;BME280;9907;42.676;26.348;2023-09-19T11:58:07;98954.72;;;24.51;47.69
19526;BME280;9907;42.676;26.348;2023-09-19T12:00:34;98952.81;;;24.51;47.30
19526;BME280;9907;42.676;26.348;2023-09-19T12:03:07;98945.56;;;24.45;47.42
19526;BME280;9907;42.676;26.348;2023-09-19T12:05:34;98942.00;;;24.45;46.74
19526;BME280;9907;42.676;26.348;2023-09-19T12:08:00;98935.47;;;24.46;46.79
19526;BME280;9907;42.676;26.348;2023-09-19T12:10:27;98932.03;;;24.50;46.78
19526;BME280;9907;42.676;26.348;2023-09-19T12:12:52;98933.81;;;24.45;46.33
19526;BME280;9907;42.676;26.348;2023-09-19T12:15:25;98935.78;;;24.38;45.57
19526;BME280;9907;42.676;26.348;2023-09-19T12:18:00;98933.13;;;24.49;46.08
19526;BME280;9907;42.676;26.348;2023-09-19T12:20:45;98929.69;;;24.54;46.08
19526;BME280;9907;42.676;26.348;2023-09-19T12:23:16;98929.69;;;24.54;46.34
19526;BME280;9907;42.676;26.348;2023-09-19T12:25:43;98921.13;;;24.50;46.71
19526;BME280;9907;42.676;26.348;2023-09-19T12:28:12;98924.69;;;24.51;45.61
19526;BME280;9907;42.676;26.348;2023-09-19T12:30:37;98922.47;;;24.59;44.88
19526;BME280;9907;42.676;26.348;2023-09-19T12:33:04;98919.66;;;24.66;44.05
19526;BME280;9907;42.676;26.348;2023-09-19T12:35:33;98919.53;;;24.61;43.65
19526;BME280;9907;42.676;26.348;2023-09-19T12:38:00;98921.34;;;24.67;43.81
19526;BME280;9907;42.676;26.348;2023-09-19T12:40:26;98911.63;;;24.71;43.90
19526;BME280;9907;42.676;26.348;2023-09-19T12:42:58;98900.81;;;24.76;43.14
19526;BME280;9907;42.676;26.348;2023-09-19T12:45:25;98911.44;;;24.84;42.36
19526;BME280;9907;42.676;26.348;2023-09-19T12:51:12;98897.97;;;24.71;42.47
19526;BME280;9907;42.676;26.348;2023-09-19T12:53:38;98884.31;;;24.71;43.24
19526;BME280;9907;42.676;26.348;2023-09-19T12:56:12;98881.94;;;24.75;43.45
19526;BME280;9907;42.676;26.348;2023-09-19T12:58:50;98880.16;;;24.80;42.58
19526;BME280;9907;42.676;26.348;2023-09-19T13:01:16;98880.63;;;24.77;43.15
19526;BME280;9907;42.676;26.348;2023-09-19T13:03:42;98877.78;;;24.72;42.67
19526;BME280;9907;42.676;26.348;2023-09-19T13:06:07;98873.59;;;24.69;42.52
19526;BME280;9907;42.676;26.348;2023-09-19T13:08:36;98875.28;;;24.70;41.58
19526;BME280;9907;42.676;26.348;2023-09-19T13:11:13;98868.50;;;24.73;41.75
19526;BME280;9907;42.676;26.348;2023-09-19T13:13:47;98863.41;;;24.77;41.95
19526;BME280;9907;42.676;26.348;2023-09-19T13:16:14;98871.84;;;24.75;42.13
19526;BME280;9907;42.676;26.348;2023-09-19T13:18:49;98865.94;;;24.78;42.31
19526;BME280;9907;42.676;26.348;2023-09-19T13:21:17;98867.97;;;24.83;42.46
19526;BME280;9907;42.676;26.348;2023-09-19T13:23:53;98864.25;;;24.77;42.55
19526;BME280;9907;42.676;26.348;2023-09-19T13:26:21;98860.94;;;24.75;42.96
19526;BME280;9907;42.676;26.348;2023-09-19T13:28:48;98861.78;;;24.76;42.75
19526;BME280;9907;42.676;26.348;2023-09-19T13:31:14;98857.34;;;24.75;42.71
19526;BME280;9907;42.676;26.348;2023-09-19T13:33:47;98852.75;;;24.75;42.80
19526;BME280;9907;42.676;26.348;2023-09-19T13:36:13;98864.63;;;24.81;42.75
19526;BME280;9907;42.676;26.348;2023-09-19T13:38:43;98851.22;;;24.79;42.82
19526;BME280;9907;42.676;26.348;2023-09-19T13:41:13;98856.66;;;24.79;43.11
19526;BME280;9907;42.676;26.348;2023-09-19T13:43:39;98855.00;;;24.78;43.68
19526;BME280;9907;42.676;26.348;2023-09-19T13:46:05;98857.66;;;24.85;43.95
19526;BME280;9907;42.676;26.348;2023-09-19T13:48:33;98860.16;;;24.86;43.71
19526;BME280;9907;42.676;26.348;2023-09-19T13:51:02;98865.38;;;24.88;44.16